sensor_id;sensor_type;location;lat;lon;timestamp;P1;durP1;ratioP1;P2;durP2;ratioP2
44746;SDS011;30472;49.490;10.972;2023-04-15T00:01:22;11.13;;;10.13;;
44746;SDS011;30472;49.490;10.972;2023-04-15T00:03:52;10.70;;;9.60;;
44746;SDS011;30472;49.490;10.972;2023-04-15T00:06:18;11.47;;;9.70;;
44746;SDS011;30472;49.490;10.972;2023-04-15T00:08:45;12.00;;;10.30;;
44746;SDS011;30472;49.490;10.972;2023-04-15T00:11:11;12.63;;;9.27;;
44746;SDS011;30472;49.490;10.972;2023-04-15T00:13:37;11.23;;;9.90;;
44746;SDS011;30472;49.490;10.972;2023-04-15T00:16:03;11.33;;;9.23;;
44746;SDS011;30472;49.490;10.972;2023-04-15T00:18:30;9.00;;;8.20;;
44746;SDS011;30472;49.490;10.972;2023-04-15T00:20:56;12.20;;;9.33;;
44746;SDS011;30472;49.490;10.972;2023-04-15T00:23:24;11.50;;;10.30;;
44746;SDS011;30472;49.490;10.972;2023-04-15T00:25:50;10.63;;;9.63;;
44746;SDS011;30472;49.490;10.972;2023-04-15T00:28:16;10.43;;;9.37;;
44746;SDS011;30472;49.490;10.972;2023-04-15T00:30:42;12.17;;;9.23;;
44746;SDS011;30472;49.490;10.972;2023-04-15T00:33:08;10.40;;;9.40;;
44746;SDS011;30472;49.490;10.972;2023-04-15T00:35:33;9.77;;;8.77;;
44746;SDS011;30472;49.490;10.972;2023-04-15T00:38:00;9.87;;;8.97;;
44746;SDS011;30472;49.490;10.972;2023-04-15T00:40:26;9.73;;;8.67;;
44746;SDS011;30472;49.490;10.972;2023-04-15T00:42:51;11.10;;;9.37;;
44746;SDS011;30472;49.490;10.972;2023-04-15T00:45:18;11.40;;;9.70;;
44746;SDS011;30472;49.490;10.972;2023-04-15T00:47:45;9.70;;;8.80;;
44746;SDS011;30472;49.490;10.972;2023-04-15T00:50:11;9.60;;;8.73;;
44746;SDS011;30472;49.490;10.972;2023-04-15T00:52:37;10.50;;;9.37;;
44746;SDS011;30472;49.490;10.972;2023-04-15T00:55:05;9.60;;;8.70;;
44746;SDS011;30472;49.490;10.972;2023-04-15T00:57:32;11.13;;;8.47;;
44746;SDS011;30472;49.490;10.972;2023-04-15T00:59:59;9.50;;;8.70;;
44746;SDS011;30472;49.490;10.972;2023-04-15T01:02:25;9.23;;;7.60;;
44746;SDS011;30472;49.490;10.972;2023-04-15T01:04:51;8.67;;;7.77;;
44746;SDS011;30472;49.490;10.972;2023-04-15T01:07:17;8.97;;;8.07;;
44746;SDS011;30472;49.490;10.972;2023-04-15T01:09:42;8.70;;;7.87;;
44746;SDS011;30472;49.490;10.972;2023-04-15T01:12:10;8.53;;;7.77;;
44746;SDS011;30472;49.490;10.972;2023-04-15T01:14:38;9.40;;;8.47;;
44746;SDS011;30472;49.490;10.972;2023-04-15T01:17:03;8.40;;;7.63;;
44746;SDS011;30472;49.490;10.972;2023-04-15T01:19:29;9.13;;;8.33;;
44746;SDS011;30472;49.490;10.972;2023-04-15T01:21:55;10.03;;;9.03;;
44746;SDS011;30472;49.490;10.972;2023-04-15T01:24:21;8.63;;;7.90;;
44746;SDS011;30472;49.490;10.972;2023-04-15T01:26:48;9.27;;;8.27;;
44746;SDS011;30472;49.490;10.972;2023-04-15T01:29:14;8.57;;;7.67;;
44746;SDS011;30472;49.490;10.972;2023-04-15T01:31:44;9.23;;;8.43;;
44746;SDS011;30472;49.490;10.972;2023-04-15T01:34:17;9.73;;;8.70;;
44746;SDS011;30472;49.490;10.972;2023-04-15T01:36:43;9.37;;;8.57;;
44746;SDS011;30472;49.490;10.972;2023-04-15T01:39:09;9.33;;;8.33;;
44746;SDS011;30472;49.490;10.972;2023-04-15T01:41:35;8.57;;;7.83;;
44746;SDS011;30472;49.490;10.972;2023-04-15T01:44:00;8.40;;;7.70;;
44746;SDS011;30472;49.490;10.972;2023-04-15T01:46:26;10.10;;;8.83;;
44746;SDS011;30472;49.490;10.972;2023-04-15T01:48:51;9.57;;;7.87;;
44746;SDS011;30472;49.490;10.972;2023-04-15T01:51:17;8.20;;;7.47;;
44746;SDS011;30472;49.490;10.972;2023-04-15T01:53:43;9.27;;;8.47;;
44746;SDS011;30472;49.490;10.972;2023-04-15T01:56:08;7.77;;;7.10;;
44746;SDS011;30472;49.490;10.972;2023-04-15T01:58:34;8.53;;;7.63;;
44746;SDS011;30472;49.490;10.972;2023-04-15T02:01:01;9.03;;;8.13;;
44746;SDS011;30472;49.490;10.972;2023-04-15T02:03:28;9.53;;;8.63;;
44746;SDS011;30472;49.490;10.972;2023-04-15T02:05:53;8.07;;;7.37;;
44746;SDS011;30472;49.490;10.972;2023-04-15T02:08:19;8.47;;;7.67;;
44746;SDS011;30472;49.490;10.972;2023-04-15T02:10:45;8.70;;;7.97;;
44746;SDS011;30472;49.490;10.972;2023-04-15T02:13:10;9.07;;;7.67;;
44746;SDS011;30472;49.490;10.972;2023-04-15T02:15:36;8.00;;;7.13;;
44746;SDS011;30472;49.490;10.972;2023-04-15T02:18:06;9.33;;;8.37;;
44746;SDS011;30472;49.490;10.972;2023-04-15T02:20:32;8.47;;;7.77;;
44746;SDS011;30472;49.490;10.972;2023-04-15T02:22:58;8.00;;;7.20;;
44746;SDS011;30472;49.490;10.972;2023-04-15T02:25:23;9.00;;;8.20;;
44746;SDS011;30472;49.490;10.972;2023-04-15T02:27:49;8.50;;;7.70;;
44746;SDS011;30472;49.490;10.972;2023-04-15T02:30:15;8.47;;;7.43;;
44746;SDS011;30472;49.490;10.972;2023-04-15T02:32:41;8.03;;;7.33;;
44746;SDS011;30472;49.490;10.972;2023-04-15T02:35:08;9.97;;;8.93;;
44746;SDS011;30472;49.490;10.972;2023-04-15T02:37:35;9.37;;;8.47;;
44746;SDS011;30472;49.490;10.972;2023-04-15T02:40:07;9.23;;;8.30;;
44746;SDS011;30472;49.490;10.972;2023-04-15T02:42:35;8.73;;;7.73;;
44746;SDS011;30472;49.490;10.972;2023-04-15T02:45:01;7.80;;;7.07;;
44746;SDS011;30472;49.490;10.972;2023-04-15T02:47:27;8.03;;;7.33;;
44746;SDS011;30472;49.490;10.972;2023-04-15T02:49:53;8.80;;;7.60;;
44746;SDS011;30472;49.490;10.972;2023-04-15T02:52:18;9.23;;;8.37;;
44746;SDS011;30472;49.490;10.972;2023-04-15T02:54:44;9.13;;;6.73;;
44746;SDS011;30472;49.490;10.972;2023-04-15T02:57:09;8.73;;;7.60;;
44746;SDS011;30472;49.490;10.972;2023-04-15T02:59:36;8.43;;;7.63;;
44746;SDS011;30472;49.490;10.972;2023-04-15T03:02:03;8.30;;;7.50;;
44746;SDS011;30472;49.490;10.972;2023-04-15T03:04:31;8.97;;;7.80;;
44746;SDS011;30472;49.490;10.972;2023-04-15T03:06:57;8.67;;;7.80;;
44746;SDS011;30472;49.490;10.972;2023-04-15T03:09:22;8.97;;;8.17;;
44746;SDS011;30472;49.490;10.972;2023-04-15T03:11:48;9.43;;;8.47;;
44746;SDS011;30472;49.490;10.972;2023-04-15T03:14:18;8.60;;;7.80;;
44746;SDS011;30472;49.490;10.972;2023-04-15T03:17:05;8.67;;;7.87;;
44746;SDS011;30472;49.490;10.972;2023-04-15T03:19:31;8.73;;;7.83;;
44746;SDS011;30472;49.490;10.972;2023-04-15T03:21:56;9.33;;;8.53;;
44746;SDS011;30472;49.490;10.972;2023-04-15T03:24:22;9.40;;;8.47;;
44746;SDS011;30472;49.490;10.972;2023-04-15T03:26:48;10.00;;;9.00;;
44746;SDS011;30472;49.490;10.972;2023-04-15T03:29:14;11.00;;;8.73;;
44746;SDS011;30472;49.490;10.972;2023-04-15T03:31:40;9.40;;;8.60;;
44746;SDS011;30472;49.490;10.972;2023-04-15T03:34:06;9.20;;;8.27;;
44746;SDS011;30472;49.490;10.972;2023-04-15T03:36:31;10.17;;;9.20;;
44746;SDS011;30472;49.490;10.972;2023-04-15T03:38:57;9.07;;;8.23;;
44746;SDS011;30472;49.490;10.972;2023-04-15T03:41:23;13.57;;;9.47;;
44746;SDS011;30472;49.490;10.972;2023-04-15T03:43:48;10.27;;;9.37;;
44746;SDS011;30472;49.490;10.972;2023-04-15T03:46:16;10.47;;;9.47;;
44746;SDS011;30472;49.490;10.972;2023-04-15T03:48:42;9.93;;;8.93;;
44746;SDS011;30472;49.490;10.972;2023-04-15T03:51:07;10.40;;;9.40;;
44746;SDS011;30472;49.490;10.972;2023-04-15T03:53:34;10.07;;;9.10;;
44746;SDS011;30472;49.490;10.972;2023-04-15T03:56:00;9.00;;;8.20;;
44746;SDS011;30472;49.490;10.972;2023-04-15T03:58:26;9.60;;;8.70;;
44746;SDS011;30472;49.490;10.972;2023-04-15T04:00:52;9.97;;;9.07;;
44746;SDS011;30472;49.490;10.972;2023-04-15T04:03:18;9.77;;;8.87;;
44746;SDS011;30472;49.490;10.972;2023-04-15T04:05:45;9.07;;;8.27;;
44746;SDS011;30472;49.490;10.972;2023-04-15T04:08:10;10.70;;;9.30;;
44746;SDS011;30472;49.490;10.972;2023-04-15T04:10:38;10.00;;;9.07;;
44746;SDS011;30472;49.490;10.972;2023-04-15T04:13:04;13.03;;;9.87;;
44746;SDS011;30472;49.490;10.972;2023-04-15T04:15:29;11.20;;;10.20;;
44746;SDS011;30472;49.490;10.972;2023-04-15T04:17:55;10.43;;;9.27;;
44746;SDS011;30472;49.490;10.972;2023-04-15T04:20:21;11.03;;;9.40;;
44746;SDS011;30472;49.490;10.972;2023-04-15T04:22:46;10.67;;;9.57;;
44746;SDS011;30472;49.490;10.972;2023-04-15T04:25:12;10.60;;;9.47;;
44746;SDS011;30472;49.490;10.972;2023-04-15T04:27:38;10.47;;;9.13;;
44746;SDS011;30472;49.490;10.972;2023-04-15T04:30:04;10.60;;;9.60;;
44746;SDS011;30472;49.490;10.972;2023-04-15T04:32:30;10.10;;;9.00;;
44746;SDS011;30472;49.490;10.972;2023-04-15T04:34:56;10.10;;;9.00;;
44746;SDS011;30472;49.490;10.972;2023-04-15T04:37:22;9.60;;;8.70;;
44746;SDS011;30472;49.490;10.972;2023-04-15T04:39:48;11.87;;;10.13;;
44746;SDS011;30472;49.490;10.972;2023-04-15T04:42:14;9.90;;;9.00;;
44746;SDS011;30472;49.490;10.972;2023-04-15T04:44:40;9.50;;;8.60;;
44746;SDS011;30472;49.490;10.972;2023-04-15T04:47:05;10.20;;;9.23;;
44746;SDS011;30472;49.490;10.972;2023-04-15T04:49:31;10.37;;;9.40;;
44746;SDS011;30472;49.490;10.972;2023-04-15T04:51:57;10.97;;;9.10;;
44746;SDS011;30472;49.490;10.972;2023-04-15T04:54:23;10.60;;;9.53;;
44746;SDS011;30472;49.490;10.972;2023-04-15T04:56:49;12.00;;;9.90;;
44746;SDS011;30472;49.490;10.972;2023-04-15T04:59:14;10.50;;;9.60;;
44746;SDS011;30472;49.490;10.972;2023-04-15T05:01:40;11.03;;;9.93;;
44746;SDS011;30472;49.490;10.972;2023-04-15T05:04:06;10.77;;;9.83;;
44746;SDS011;30472;49.490;10.972;2023-04-15T05:06:32;10.73;;;9.73;;
44746;SDS011;30472;49.490;10.972;2023-04-15T05:08:58;11.23;;;10.03;;
44746;SDS011;30472;49.490;10.972;2023-04-15T05:11:23;10.90;;;9.90;;
44746;SDS011;30472;49.490;10.972;2023-04-15T05:13:49;11.10;;;9.97;;
44746;SDS011;30472;49.490;10.972;2023-04-15T05:16:15;10.53;;;9.53;;
44746;SDS011;30472;49.490;10.972;2023-04-15T05:18:41;11.50;;;10.00;;
44746;SDS011;30472;49.490;10.972;2023-04-15T05:21:07;10.00;;;8.97;;
44746;SDS011;30472;49.490;10.972;2023-04-15T05:23:32;10.33;;;9.33;;
44746;SDS011;30472;49.490;10.972;2023-04-15T05:25:58;11.47;;;9.40;;
44746;SDS011;30472;49.490;10.972;2023-04-15T05:28:23;11.37;;;10.17;;
44746;SDS011;30472;49.490;10.972;2023-04-15T05:30:49;11.10;;;9.77;;
44746;SDS011;30472;49.490;10.972;2023-04-15T05:33:15;10.47;;;9.40;;
44746;SDS011;30472;49.490;10.972;2023-04-15T05:35:41;9.60;;;8.70;;
44746;SDS011;30472;49.490;10.972;2023-04-15T05:38:07;10.80;;;9.80;;
44746;SDS011;30472;49.490;10.972;2023-04-15T05:40:32;11.80;;;9.63;;
44746;SDS011;30472;49.490;10.972;2023-04-15T05:42:58;10.63;;;9.73;;
44746;SDS011;30472;49.490;10.972;2023-04-15T05:45:23;10.83;;;9.77;;
44746;SDS011;30472;49.490;10.972;2023-04-15T05:47:49;9.87;;;8.97;;
44746;SDS011;30472;49.490;10.972;2023-04-15T05:50:17;10.07;;;9.17;;
44746;SDS011;30472;49.490;10.972;2023-04-15T05:52:43;11.13;;;9.93;;
44746;SDS011;30472;49.490;10.972;2023-04-15T05:55:10;10.87;;;9.80;;
44746;SDS011;30472;49.490;10.972;2023-04-15T05:57:36;13.77;;;10.17;;
44746;SDS011;30472;49.490;10.972;2023-04-15T06:00:02;10.73;;;9.47;;
44746;SDS011;30472;49.490;10.972;2023-04-15T06:02:29;10.37;;;9.27;;
44746;SDS011;30472;49.490;10.972;2023-04-15T06:04:55;10.50;;;9.50;;
44746;SDS011;30472;49.490;10.972;2023-04-15T06:07:21;11.10;;;10.00;;
44746;SDS011;30472;49.490;10.972;2023-04-15T06:09:47;9.87;;;8.97;;
44746;SDS011;30472;49.490;10.972;2023-04-15T06:12:13;11.73;;;10.13;;
44746;SDS011;30472;49.490;10.972;2023-04-15T06:14:39;10.43;;;9.43;;
44746;SDS011;30472;49.490;10.972;2023-04-15T06:17:05;10.67;;;8.73;;
44746;SDS011;30472;49.490;10.972;2023-04-15T06:19:31;8.47;;;7.67;;
44746;SDS011;30472;49.490;10.972;2023-04-15T06:21:58;8.37;;;7.63;;
44746;SDS011;30472;49.490;10.972;2023-04-15T06:24:24;8.90;;;8.07;;
44746;SDS011;30472;49.490;10.972;2023-04-15T06:26:49;9.30;;;8.40;;
44746;SDS011;30472;49.490;10.972;2023-04-15T06:29:15;8.53;;;7.73;;
44746;SDS011;30472;49.490;10.972;2023-04-15T06:31:41;8.67;;;7.87;;
44746;SDS011;30472;49.490;10.972;2023-04-15T06:34:06;9.13;;;8.33;;
44746;SDS011;30472;49.490;10.972;2023-04-15T06:36:32;9.30;;;8.40;;
44746;SDS011;30472;49.490;10.972;2023-04-15T06:38:58;8.47;;;7.47;;
44746;SDS011;30472;49.490;10.972;2023-04-15T06:41:23;7.63;;;6.93;;
44746;SDS011;30472;49.490;10.972;2023-04-15T06:43:49;8.37;;;7.57;;
44746;SDS011;30472;49.490;10.972;2023-04-15T06:46:15;9.77;;;7.17;;
44746;SDS011;30472;49.490;10.972;2023-04-15T06:48:41;7.73;;;7.03;;
44746;SDS011;30472;49.490;10.972;2023-04-15T06:51:06;7.73;;;6.90;;
44746;SDS011;30472;49.490;10.972;2023-04-15T06:53:32;7.33;;;6.70;;
44746;SDS011;30472;49.490;10.972;2023-04-15T06:55:59;7.37;;;6.73;;
44746;SDS011;30472;49.490;10.972;2023-04-15T06:58:25;11.33;;;8.20;;
44746;SDS011;30472;49.490;10.972;2023-04-15T07:00:51;7.90;;;7.10;;
44746;SDS011;30472;49.490;10.972;2023-04-15T07:03:17;8.93;;;7.47;;
44746;SDS011;30472;49.490;10.972;2023-04-15T07:05:42;7.27;;;6.57;;
44746;SDS011;30472;49.490;10.972;2023-04-15T07:08:08;8.40;;;6.93;;
44746;SDS011;30472;49.490;10.972;2023-04-15T07:10:34;8.20;;;7.40;;
44746;SDS011;30472;49.490;10.972;2023-04-15T07:13:00;6.87;;;6.27;;
44746;SDS011;30472;49.490;10.972;2023-04-15T07:15:25;8.70;;;7.37;;
44746;SDS011;30472;49.490;10.972;2023-04-15T07:17:51;7.30;;;6.70;;
44746;SDS011;30472;49.490;10.972;2023-04-15T07:20:17;7.77;;;6.97;;
44746;SDS011;30472;49.490;10.972;2023-04-15T07:22:43;7.30;;;6.60;;
44746;SDS011;30472;49.490;10.972;2023-04-15T07:25:08;7.90;;;6.90;;
44746;SDS011;30472;49.490;10.972;2023-04-15T07:27:34;6.67;;;6.07;;
44746;SDS011;30472;49.490;10.972;2023-04-15T07:30:00;7.27;;;5.97;;
44746;SDS011;30472;49.490;10.972;2023-04-15T07:32:26;6.67;;;6.07;;
44746;SDS011;30472;49.490;10.972;2023-04-15T07:34:52;7.30;;;6.07;;
44746;SDS011;30472;49.490;10.972;2023-04-15T07:37:18;6.03;;;5.40;;
44746;SDS011;30472;49.490;10.972;2023-04-15T07:39:43;6.97;;;5.67;;
44746;SDS011;30472;49.490;10.972;2023-04-15T07:42:09;6.63;;;5.80;;
44746;SDS011;30472;49.490;10.972;2023-04-15T07:44:35;6.50;;;5.47;;
44746;SDS011;30472;49.490;10.972;2023-04-15T07:47:01;7.17;;;6.47;;
44746;SDS011;30472;49.490;10.972;2023-04-15T07:49:27;5.63;;;5.03;;
44746;SDS011;30472;49.490;10.972;2023-04-15T07:51:52;4.90;;;4.50;;
44746;SDS011;30472;49.490;10.972;2023-04-15T07:54:18;6.03;;;5.40;;
44746;SDS011;30472;49.490;10.972;2023-04-15T07:56:44;7.87;;;5.40;;
44746;SDS011;30472;49.490;10.972;2023-04-15T07:59:10;5.43;;;4.93;;
44746;SDS011;30472;49.490;10.972;2023-04-15T08:01:36;6.87;;;4.77;;
44746;SDS011;30472;49.490;10.972;2023-04-15T08:04:02;4.50;;;4.10;;
44746;SDS011;30472;49.490;10.972;2023-04-15T08:06:28;4.83;;;4.43;;
44746;SDS011;30472;49.490;10.972;2023-04-15T08:08:54;4.93;;;4.43;;
44746;SDS011;30472;49.490;10.972;2023-04-15T08:11:20;5.30;;;4.80;;
44746;SDS011;30472;49.490;10.972;2023-04-15T08:13:47;4.43;;;4.00;;
44746;SDS011;30472;49.490;10.972;2023-04-15T08:16:19;4.20;;;3.80;;
44746;SDS011;30472;49.490;10.972;2023-04-15T08:18:47;5.80;;;4.70;;
44746;SDS011;30472;49.490;10.972;2023-04-15T08:21:19;5.50;;;4.13;;
44746;SDS011;30472;49.490;10.972;2023-04-15T08:23:45;5.20;;;3.60;;
44746;SDS011;30472;49.490;10.972;2023-04-15T08:26:13;4.10;;;3.70;;
44746;SDS011;30472;49.490;10.972;2023-04-15T08:28:39;4.47;;;3.87;;
44746;SDS011;30472;49.490;10.972;2023-04-15T08:31:05;4.30;;;3.83;;
44746;SDS011;30472;49.490;10.972;2023-04-15T08:33:31;3.30;;;3.00;;
44746;SDS011;30472;49.490;10.972;2023-04-15T08:35:57;2.57;;;2.37;;
44746;SDS011;30472;49.490;10.972;2023-04-15T08:38:22;2.73;;;2.53;;
44746;SDS011;30472;49.490;10.972;2023-04-15T08:40:48;2.93;;;2.10;;
44746;SDS011;30472;49.490;10.972;2023-04-15T08:43:17;3.43;;;2.00;;
44746;SDS011;30472;49.490;10.972;2023-04-15T08:45:51;2.10;;;1.93;;
44746;SDS011;30472;49.490;10.972;2023-04-15T08:48:17;2.10;;;2.00;;
44746;SDS011;30472;49.490;10.972;2023-04-15T08:50:44;2.30;;;2.10;;
44746;SDS011;30472;49.490;10.972;2023-04-15T08:53:11;1.83;;;1.73;;
44746;SDS011;30472;49.490;10.972;2023-04-15T08:55:38;2.13;;;1.93;;
44746;SDS011;30472;49.490;10.972;2023-04-15T08:58:13;3.20;;;2.43;;
44746;SDS011;30472;49.490;10.972;2023-04-15T09:00:40;2.13;;;2.03;;
44746;SDS011;30472;49.490;10.972;2023-04-15T09:03:07;2.00;;;1.90;;
44746;SDS011;30472;49.490;10.972;2023-04-15T09:05:36;1.60;;;1.50;;
44746;SDS011;30472;49.490;10.972;2023-04-15T09:08:02;1.90;;;1.80;;
44746;SDS011;30472;49.490;10.972;2023-04-15T09:10:29;1.90;;;1.63;;
44746;SDS011;30472;49.490;10.972;2023-04-15T09:12:56;1.60;;;1.50;;
44746;SDS011;30472;49.490;10.972;2023-04-15T09:15:25;2.27;;;2.03;;
44746;SDS011;30472;49.490;10.972;2023-04-15T09:17:53;1.53;;;1.50;;
44746;SDS011;30472;49.490;10.972;2023-04-15T09:20:20;1.60;;;1.50;;
44746;SDS011;30472;49.490;10.972;2023-04-15T09:22:46;2.07;;;1.77;;
44746;SDS011;30472;49.490;10.972;2023-04-15T09:27:46;2.27;;;1.83;;
44746;SDS011;30472;49.490;10.972;2023-04-15T09:30:16;1.60;;;1.50;;
44746;SDS011;30472;49.490;10.972;2023-04-15T09:32:52;1.73;;;1.60;;
44746;SDS011;30472;49.490;10.972;2023-04-15T09:35:22;1.83;;;1.70;;
44746;SDS011;30472;49.490;10.972;2023-04-15T09:37:49;2.00;;;1.90;;
44746;SDS011;30472;49.490;10.972;2023-04-15T09:43:04;3.37;;;2.30;;
44746;SDS011;30472;49.490;10.972;2023-04-15T09:45:30;2.57;;;2.40;;
44746;SDS011;30472;49.490;10.972;2023-04-15T09:47:57;2.10;;;2.00;;
44746;SDS011;30472;49.490;10.972;2023-04-15T09:50:27;1.50;;;1.40;;
44746;SDS011;30472;49.490;10.972;2023-04-15T09:52:53;1.80;;;1.70;;
44746;SDS011;30472;49.490;10.972;2023-04-15T09:55:19;1.90;;;1.80;;
44746;SDS011;30472;49.490;10.972;2023-04-15T09:57:45;2.17;;;1.70;;
44746;SDS011;30472;49.490;10.972;2023-04-15T10:00:11;1.73;;;1.60;;
44746;SDS011;30472;49.490;10.972;2023-04-15T10:02:39;2.40;;;1.60;;
44746;SDS011;30472;49.490;10.972;2023-04-15T10:05:13;1.80;;;1.70;;
44746;SDS011;30472;49.490;10.972;2023-04-15T10:07:39;2.70;;;1.80;;
44746;SDS011;30472;49.490;10.972;2023-04-15T10:10:05;1.70;;;1.60;;
44746;SDS011;30472;49.490;10.972;2023-04-15T10:12:31;2.00;;;1.90;;
44746;SDS011;30472;49.490;10.972;2023-04-15T10:14:58;1.93;;;1.83;;
44746;SDS011;30472;49.490;10.972;2023-04-15T10:17:28;2.10;;;2.00;;
44746;SDS011;30472;49.490;10.972;2023-04-15T10:19:59;2.00;;;1.80;;
44746;SDS011;30472;49.490;10.972;2023-04-15T10:22:27;2.10;;;2.00;;
44746;SDS011;30472;49.490;10.972;2023-04-15T10:24:53;2.37;;;2.17;;
44746;SDS011;30472;49.490;10.972;2023-04-15T10:27:20;2.73;;;2.53;;
44746;SDS011;30472;49.490;10.972;2023-04-15T10:29:48;2.43;;;2.23;;
44746;SDS011;30472;49.490;10.972;2023-04-15T10:32:14;2.93;;;2.67;;
44746;SDS011;30472;49.490;10.972;2023-04-15T10:34:44;2.50;;;2.40;;
44746;SDS011;30472;49.490;10.972;2023-04-15T10:37:11;2.87;;;2.60;;
44746;SDS011;30472;49.490;10.972;2023-04-15T10:39:37;3.00;;;2.80;;
44746;SDS011;30472;49.490;10.972;2023-04-15T10:42:14;3.37;;;3.17;;
44746;SDS011;30472;49.490;10.972;2023-04-15T10:44:42;3.03;;;2.80;;
44746;SDS011;30472;49.490;10.972;2023-04-15T10:47:20;3.80;;;3.50;;
44746;SDS011;30472;49.490;10.972;2023-04-15T10:49:47;5.03;;;3.30;;
44746;SDS011;30472;49.490;10.972;2023-04-15T10:52:25;3.13;;;2.93;;
44746;SDS011;30472;49.490;10.972;2023-04-15T10:55:01;3.13;;;2.93;;
44746;SDS011;30472;49.490;10.972;2023-04-15T10:57:39;3.50;;;3.20;;
44746;SDS011;30472;49.490;10.972;2023-04-15T11:08:03;2.50;;;2.30;;
44746;SDS011;30472;49.490;10.972;2023-04-15T11:17:58;2.30;;;2.03;;
44746;SDS011;30472;49.490;10.972;2023-04-15T11:20:24;2.37;;;2.17;;
44746;SDS011;30472;49.490;10.972;2023-04-15T11:22:51;2.40;;;2.20;;
44746;SDS011;30472;49.490;10.972;2023-04-15T11:25:25;2.70;;;2.50;;
44746;SDS011;30472;49.490;10.972;2023-04-15T11:27:52;2.60;;;2.40;;
44746;SDS011;30472;49.490;10.972;2023-04-15T11:30:19;2.70;;;2.50;;
44746;SDS011;30472;49.490;10.972;2023-04-15T11:32:50;2.50;;;2.30;;
44746;SDS011;30472;49.490;10.972;2023-04-15T11:35:16;2.87;;;2.53;;
44746;SDS011;30472;49.490;10.972;2023-04-15T11:37:43;2.80;;;2.60;;
44746;SDS011;30472;49.490;10.972;2023-04-15T11:40:09;2.97;;;2.40;;
44746;SDS011;30472;49.490;10.972;2023-04-15T11:42:35;2.20;;;2.10;;
44746;SDS011;30472;49.490;10.972;2023-04-15T11:45:08;2.67;;;2.27;;
44746;SDS011;30472;49.490;10.972;2023-04-15T11:47:35;2.33;;;2.23;;
44746;SDS011;30472;49.490;10.972;2023-04-15T11:50:17;2.57;;;2.37;;
44746;SDS011;30472;49.490;10.972;2023-04-15T11:52:54;2.07;;;1.90;;
44746;SDS011;30472;49.490;10.972;2023-04-15T11:55:21;2.63;;;2.43;;
44746;SDS011;30472;49.490;10.972;2023-04-15T11:58:04;2.70;;;2.50;;
44746;SDS011;30472;49.490;10.972;2023-04-15T12:00:38;2.20;;;2.00;;
44746;SDS011;30472;49.490;10.972;2023-04-15T12:03:14;2.20;;;2.10;;
44746;SDS011;30472;49.490;10.972;2023-04-15T12:06:24;2.60;;;2.40;;
44746;SDS011;30472;49.490;10.972;2023-04-15T12:11:16;2.80;;;2.57;;
44746;SDS011;30472;49.490;10.972;2023-04-15T12:13:43;2.87;;;2.67;;
44746;SDS011;30472;49.490;10.972;2023-04-15T12:16:16;2.57;;;2.47;;
44746;SDS011;30472;49.490;10.972;2023-04-15T12:18:46;3.17;;;2.97;;
44746;SDS011;30472;49.490;10.972;2023-04-15T12:21:18;2.40;;;2.30;;
44746;SDS011;30472;49.490;10.972;2023-04-15T12:23:48;2.40;;;2.20;;
44746;SDS011;30472;49.490;10.972;2023-04-15T12:26:14;3.87;;;2.37;;
44746;SDS011;30472;49.490;10.972;2023-04-15T12:28:41;2.70;;;2.50;;
44746;SDS011;30472;49.490;10.972;2023-04-15T12:31:07;2.37;;;2.27;;
44746;SDS011;30472;49.490;10.972;2023-04-15T12:33:34;2.27;;;2.10;;
44746;SDS011;30472;49.490;10.972;2023-04-15T12:35:59;2.00;;;1.90;;
44746;SDS011;30472;49.490;10.972;2023-04-15T12:38:25;2.23;;;2.13;;
44746;SDS011;30472;49.490;10.972;2023-04-15T12:40:51;2.00;;;1.80;;
44746;SDS011;30472;49.490;10.972;2023-04-15T12:43:16;2.00;;;1.90;;
44746;SDS011;30472;49.490;10.972;2023-04-15T12:45:42;2.23;;;2.03;;
44746;SDS011;30472;49.490;10.972;2023-04-15T12:48:08;1.80;;;1.70;;
44746;SDS011;30472;49.490;10.972;2023-04-15T12:50:34;5.93;;;2.13;;
44746;SDS011;30472;49.490;10.972;2023-04-15T12:53:00;2.37;;;1.70;;
44746;SDS011;30472;49.490;10.972;2023-04-15T12:55:25;4.90;;;2.07;;
44746;SDS011;30472;49.490;10.972;2023-04-15T12:57:51;1.90;;;1.80;;
44746;SDS011;30472;49.490;10.972;2023-04-15T13:00:17;2.07;;;1.90;;
44746;SDS011;30472;49.490;10.972;2023-04-15T13:02:43;1.83;;;1.67;;
44746;SDS011;30472;49.490;10.972;2023-04-15T13:05:09;2.03;;;1.93;;
44746;SDS011;30472;49.490;10.972;2023-04-15T13:07:35;2.70;;;2.50;;
44746;SDS011;30472;49.490;10.972;2023-04-15T13:10:00;1.93;;;1.83;;
44746;SDS011;30472;49.490;10.972;2023-04-15T13:12:26;5.30;;;2.10;;
44746;SDS011;30472;49.490;10.972;2023-04-15T13:14:51;2.17;;;2.07;;
44746;SDS011;30472;49.490;10.972;2023-04-15T13:17:17;2.43;;;2.30;;
44746;SDS011;30472;49.490;10.972;2023-04-15T13:19:44;2.23;;;2.03;;
44746;SDS011;30472;49.490;10.972;2023-04-15T13:22:10;1.90;;;1.80;;
44746;SDS011;30472;49.490;10.972;2023-04-15T13:24:36;1.97;;;1.70;;
44746;SDS011;30472;49.490;10.972;2023-04-15T13:27:03;1.97;;;1.87;;
44746;SDS011;30472;49.490;10.972;2023-04-15T13:29:29;1.90;;;1.80;;
44746;SDS011;30472;49.490;10.972;2023-04-15T13:31:55;1.70;;;1.60;;
44746;SDS011;30472;49.490;10.972;2023-04-15T13:34:21;1.90;;;1.80;;
44746;SDS011;30472;49.490;10.972;2023-04-15T13:36:46;2.10;;;2.00;;
44746;SDS011;30472;49.490;10.972;2023-04-15T13:39:12;2.03;;;1.93;;
44746;SDS011;30472;49.490;10.972;2023-04-15T13:41:38;1.60;;;1.50;;
44746;SDS011;30472;49.490;10.972;2023-04-15T13:44:04;2.00;;;1.90;;
44746;SDS011;30472;49.490;10.972;2023-04-15T13:46:30;2.30;;;2.20;;
44746;SDS011;30472;49.490;10.972;2023-04-15T13:48:55;2.27;;;2.17;;
44746;SDS011;30472;49.490;10.972;2023-04-15T13:51:21;2.23;;;2.13;;
44746;SDS011;30472;49.490;10.972;2023-04-15T13:53:46;2.07;;;1.97;;
44746;SDS011;30472;49.490;10.972;2023-04-15T13:56:12;2.93;;;2.23;;
44746;SDS011;30472;49.490;10.972;2023-04-15T13:58:38;2.70;;;2.50;;
44746;SDS011;30472;49.490;10.972;2023-04-15T14:01:04;4.60;;;2.20;;
44746;SDS011;30472;49.490;10.972;2023-04-15T14:03:30;2.83;;;2.63;;
44746;SDS011;30472;49.490;10.972;2023-04-15T14:05:56;2.60;;;2.40;;
44746;SDS011;30472;49.490;10.972;2023-04-15T14:08:22;3.10;;;2.17;;
44746;SDS011;30472;49.490;10.972;2023-04-15T14:10:49;2.53;;;2.20;;
44746;SDS011;30472;49.490;10.972;2023-04-15T14:13:14;2.80;;;2.60;;
44746;SDS011;30472;49.490;10.972;2023-04-15T14:15:40;2.30;;;2.20;;
44746;SDS011;30472;49.490;10.972;2023-04-15T14:18:06;2.63;;;2.43;;
44746;SDS011;30472;49.490;10.972;2023-04-15T14:20:32;2.47;;;2.30;;
44746;SDS011;30472;49.490;10.972;2023-04-15T14:22:57;2.80;;;2.27;;
44746;SDS011;30472;49.490;10.972;2023-04-15T14:25:23;4.87;;;2.30;;
44746;SDS011;30472;49.490;10.972;2023-04-15T14:27:51;2.30;;;2.20;;
44746;SDS011;30472;49.490;10.972;2023-04-15T14:30:16;2.57;;;2.37;;
44746;SDS011;30472;49.490;10.972;2023-04-15T14:32:42;2.90;;;2.70;;
44746;SDS011;30472;49.490;10.972;2023-04-15T14:35:07;2.63;;;2.40;;
44746;SDS011;30472;49.490;10.972;2023-04-15T14:37:33;2.47;;;2.37;;
44746;SDS011;30472;49.490;10.972;2023-04-15T14:39:58;2.30;;;2.20;;
44746;SDS011;30472;49.490;10.972;2023-04-15T14:42:24;2.43;;;2.23;;
44746;SDS011;30472;49.490;10.972;2023-04-15T14:44:50;3.20;;;2.90;;
44746;SDS011;30472;49.490;10.972;2023-04-15T14:47:15;2.90;;;2.70;;
44746;SDS011;30472;49.490;10.972;2023-04-15T14:49:41;2.47;;;2.30;;
44746;SDS011;30472;49.490;10.972;2023-04-15T14:52:07;2.53;;;2.37;;